createdAt,value
2019-05-12T00:00:39.460Z,1004.84
2019-05-12T00:01:38.781Z,1004.86
2019-05-12T00:02:33.360Z,1004.84
2019-05-12T00:03:30.343Z,1004.88
2019-05-12T00:04:28.086Z,1004.90
2019-05-12T00:05:24.500Z,1005.04
2019-05-12T00:06:21.328Z,1005.02
2019-05-12T00:07:18.355Z,1005.00
2019-05-12T00:08:15.428Z,1005.06
2019-05-12T00:09:12.418Z,1004.93
2019-05-12T00:10:09.442Z,1004.97
2019-05-12T00:11:08.801Z,1004.97
2019-05-12T00:12:03.438Z,1005.06
2019-05-12T00:13:00.462Z,1005.00
2019-05-12T00:13:58.611Z,1005.01
2019-05-12T00:14:54.434Z,1005.05
2019-05-12T00:15:51.472Z,1005.03
2019-05-12T00:16:49.139Z,1005.02
2019-05-12T00:17:48.005Z,1005.04
2019-05-12T00:18:42.484Z,1005.00
2019-05-12T00:19:39.521Z,1005.09
2019-05-12T00:20:38.496Z,1005.07
2019-05-12T00:21:33.507Z,1005.09
2019-05-12T00:22:30.568Z,1005.10
2019-05-12T00:23:30.437Z,1005.05
2019-05-12T00:24:24.505Z,1005.06
2019-05-12T00:25:21.554Z,1005.08
2019-05-12T00:26:18.716Z,1005.15
2019-05-12T00:27:17.755Z,1005.21
2019-05-12T00:28:12.643Z,1005.10
2019-05-12T00:29:09.636Z,1005.18
2019-05-12T00:30:09.923Z,1005.18
2019-05-12T00:31:03.584Z,1005.17
2019-05-12T00:32:00.600Z,1005.23
2019-05-12T00:32:58.033Z,1005.23
2019-05-12T00:33:54.672Z,1005.27
2019-05-12T00:34:51.607Z,1005.31
2019-05-12T00:35:48.645Z,1005.38
2019-05-12T00:36:45.704Z,1005.34
2019-05-12T00:37:42.641Z,1005.40
2019-05-12T00:38:39.657Z,1005.38
2019-05-12T00:39:38.262Z,1005.45
2019-05-12T00:40:33.746Z,1005.44
2019-05-12T00:41:30.664Z,1005.50
2019-05-12T00:42:28.811Z,1005.46
2019-05-12T00:43:24.739Z,1005.46
2019-05-12T00:44:21.781Z,1005.47
2019-05-12T00:45:18.714Z,1005.51
2019-05-12T00:46:15.845Z,1005.54
2019-05-12T00:47:12.808Z,1005.56
2019-05-12T00:48:09.892Z,1005.55
2019-05-12T00:49:08.051Z,1005.50
2019-05-12T00:50:03.841Z,1005.51
2019-05-12T00:51:00.859Z,1005.53
2019-05-12T00:51:58.694Z,1005.43
2019-05-12T00:52:54.899Z,1005.47
2019-05-12T00:53:51.795Z,1005.45
2019-05-12T00:54:48.911Z,1005.58
2019-05-12T00:55:47.645Z,1005.53
2019-05-12T00:56:42.891Z,1005.54
2019-05-12T00:57:39.986Z,1005.68
2019-05-12T00:58:38.232Z,1005.75
2019-05-12T00:59:33.913Z,1005.74
2019-05-12T01:00:30.905Z,1005.69
2019-05-12T01:01:28.590Z,1005.67
2019-05-12T01:02:24.979Z,1005.58
2019-05-12T01:03:21.939Z,1005.58
2019-05-12T01:04:18.952Z,1005.64
2019-05-12T01:05:17.731Z,1005.64
2019-05-12T01:06:13.052Z,1005.58
2019-05-12T01:07:09.981Z,1005.59
2019-05-12T01:08:09.163Z,1005.62
2019-05-12T01:09:04.077Z,1005.66
2019-05-12T01:10:03.141Z,1005.57
2019-05-12T01:10:58.473Z,1005.63
2019-05-12T01:11:55.140Z,1005.77
2019-05-12T01:12:52.105Z,1005.63
2019-05-12T01:13:49.019Z,1005.72
2019-05-12T01:14:47.809Z,1005.68
2019-05-12T01:15:43.110Z,1005.75
2019-05-12T01:16:40.134Z,1005.72
2019-05-12T01:17:40.017Z,1005.69
2019-05-12T01:18:34.127Z,1005.71
2019-05-12T01:19:31.141Z,1005.69
2019-05-12T01:20:28.590Z,1005.67
2019-05-12T01:21:25.206Z,1005.73
2019-05-12T01:22:22.150Z,1005.76
2019-05-12T01:23:23.062Z,1005.85
2019-05-12T01:24:18.521Z,1005.76
2019-05-12T01:25:13.198Z,1005.91
2019-05-12T01:26:10.141Z,1005.85
2019-05-12T01:27:08.616Z,1005.75
2019-05-12T01:28:04.182Z,1005.85
2019-05-12T01:29:01.301Z,1005.91
2019-05-12T01:29:58.251Z,1005.90
2019-05-12T01:30:55.285Z,1005.96
2019-05-12T01:31:52.232Z,1006.05
2019-05-12T01:32:49.256Z,1006.01
2019-05-12T01:33:48.489Z,1006.02
2019-05-12T01:34:43.235Z,1006.11
2019-05-12T01:35:40.274Z,1006.06
2019-05-12T01:36:38.099Z,1006.04
2019-05-12T01:37:34.355Z,1006.09
2019-05-12T01:38:31.291Z,1006.17
2019-05-12T01:39:28.366Z,1006.04
2019-05-12T01:40:25.352Z,1006.21
2019-05-12T01:41:22.396Z,1006.20
2019-05-12T01:42:19.338Z,1006.24
2019-05-12T01:43:20.676Z,1006.24
2019-05-12T01:44:13.413Z,1006.23
2019-05-12T01:45:10.344Z,1006.23
2019-05-12T01:46:08.063Z,1006.27
2019-05-12T01:47:04.501Z,1006.26
2019-05-12T01:48:01.447Z,1006.33
2019-05-12T01:48:59.085Z,1006.29
2019-05-12T01:49:57.971Z,1006.26
2019-05-12T01:50:52.457Z,1006.29
2019-05-12T01:51:49.495Z,1006.29
2019-05-12T01:52:47.857Z,1006.36
2019-05-12T01:53:43.672Z,1006.34
2019-05-12T01:54:40.503Z,1006.37
2019-05-12T01:55:38.598Z,1006.45
2019-05-12T01:56:34.474Z,1006.40
2019-05-12T01:57:31.528Z,1006.41
2019-05-12T01:58:28.558Z,1006.48
2019-05-12T01:59:25.507Z,1006.39
2019-05-12T02:00:22.573Z,1006.48
2019-05-12T02:01:19.561Z,1006.43
2019-05-12T02:02:17.876Z,1006.40
2019-05-12T02:03:13.635Z,1006.50
2019-05-12T02:04:10.660Z,1006.56
2019-05-12T02:05:08.613Z,1006.59
2019-05-12T02:06:04.646Z,1006.57
2019-05-12T02:07:01.583Z,1006.49
2019-05-12T02:07:58.922Z,1006.57
2019-05-12T02:08:58.070Z,1006.51
2019-05-12T02:09:52.694Z,1006.58
2019-05-12T02:10:49.675Z,1006.60
2019-05-12T02:11:48.366Z,1006.61
2019-05-12T02:12:43.750Z,1006.62
2019-05-12T02:13:40.647Z,1006.62
2019-05-12T02:14:38.204Z,1006.60
2019-05-12T02:15:34.712Z,1006.67
2019-05-12T02:16:31.751Z,1006.69
2019-05-12T02:17:28.687Z,1006.70
2019-05-12T02:18:28.083Z,1006.71
2019-05-12T02:19:22.776Z,1006.62
2019-05-12T02:20:19.799Z,1006.62
2019-05-12T02:21:18.921Z,1006.69
2019-05-12T02:22:13.864Z,1006.69
2019-05-12T02:23:10.811Z,1006.73
2019-05-12T02:24:08.049Z,1006.79
2019-05-12T02:25:04.780Z,1006.92
2019-05-12T02:26:01.819Z,1006.88
2019-05-12T02:26:58.856Z,1006.96
2019-05-12T02:27:58.128Z,1006.96
2019-05-12T02:28:52.849Z,1006.96
2019-05-12T02:29:49.888Z,1006.85
2019-05-12T02:30:49.956Z,1006.94
2019-05-12T02:31:43.918Z,1006.91
2019-05-12T02:32:52.183Z,1006.89
2019-05-12T02:33:37.938Z,1006.94
2019-05-12T02:34:35.128Z,1007.05
2019-05-12T02:35:35.252Z,1006.91
2019-05-12T02:36:28.924Z,1006.98
2019-05-12T02:37:26.388Z,1007.01
2019-05-12T02:38:25.175Z,1007.00
2019-05-12T02:39:19.960Z,1007.03
2019-05-12T02:40:16.986Z,1007.00
2019-05-12T02:41:15.465Z,1006.99
2019-05-12T02:42:10.956Z,1006.98
2019-05-12T02:43:08.006Z,1006.99
2019-05-12T02:44:05.444Z,1007.04
2019-05-12T02:45:05.258Z,1007.00
2019-05-12T02:45:58.991Z,1007.07
2019-05-12T02:46:56.032Z,1007.04
2019-05-12T02:47:54.334Z,1006.93
2019-05-12T02:48:50.018Z,1006.98
2019-05-12T02:49:47.042Z,1006.99
2019-05-12T02:50:45.215Z,1006.99
2019-05-12T02:51:41.116Z,1007.02
2019-05-12T02:52:38.055Z,1007.14
2019-05-12T02:53:35.322Z,1007.09
2019-05-12T02:54:50.580Z,1007.11
2019-05-12T02:55:29.183Z,1007.10
2019-05-12T02:56:26.301Z,1007.14
2019-05-12T02:57:25.568Z,1007.18
2019-05-12T02:58:20.261Z,1007.25
2019-05-12T02:59:17.215Z,1007.31
2019-05-12T03:00:16.002Z,1007.24
2019-05-12T03:01:11.182Z,1007.21
2019-05-12T03:02:08.221Z,1007.26
2019-05-12T03:03:05.619Z,1007.31
2019-05-12T03:04:05.412Z,1007.21
2019-05-12T03:04:59.321Z,1007.27
2019-05-12T03:05:56.286Z,1007.19
2019-05-12T03:06:54.854Z,1007.22
2019-05-12T03:07:50.242Z,1007.27
2019-05-12T03:08:47.303Z,1007.25
2019-05-12T03:09:44.757Z,1007.31
2019-05-12T03:10:44.711Z,1007.27
2019-05-12T03:11:38.336Z,1007.20
2019-05-12T03:12:35.329Z,1007.29
2019-05-12T03:13:34.569Z,1007.23
2019-05-12T03:14:29.388Z,1007.32
2019-05-12T03:15:26.357Z,1007.32
2019-05-12T03:16:25.668Z,1007.32
2019-05-12T03:17:20.411Z,1007.33
2019-05-12T03:18:17.372Z,1007.37
2019-05-12T03:19:15.166Z,1007.22
2019-05-12T03:20:15.054Z,1007.31
2019-05-12T03:21:08.449Z,1007.41
2019-05-12T03:22:05.422Z,1007.41
2019-05-12T03:23:06.041Z,1007.36
2019-05-12T03:23:59.472Z,1007.30
2019-05-12T03:25:07.871Z,1007.44
2019-05-12T03:25:54.670Z,1007.40
2019-05-12T03:26:50.524Z,1007.45
2019-05-12T03:27:47.525Z,1007.47
2019-05-12T03:28:44.799Z,1007.48
2019-05-12T03:29:44.783Z,1007.53
2019-05-12T03:30:40.716Z,1007.50
2019-05-12T03:31:39.867Z,1007.46
2019-05-12T03:32:37.278Z,1007.52
2019-05-12T03:33:40.635Z,1007.60
2019-05-12T03:34:29.315Z,1007.63
2019-05-12T03:35:32.729Z,1007.52
2019-05-12T03:36:20.668Z,1007.59
2019-05-12T03:37:18.515Z,1007.62
2019-05-12T03:38:15.096Z,1007.62
2019-05-12T03:39:14.715Z,1007.70
2019-05-12T03:40:08.692Z,1007.74
2019-05-12T03:41:05.682Z,1007.70
2019-05-12T03:42:05.087Z,1007.72
2019-05-12T03:42:59.603Z,1007.73
2019-05-12T03:43:56.645Z,1007.81
2019-05-12T03:44:54.755Z,1007.89
2019-05-12T03:45:50.730Z,1007.89
2019-05-12T03:46:47.653Z,1007.94
2019-05-12T03:47:45.711Z,1007.98
2019-05-12T03:48:45.187Z,1007.92
2019-05-12T03:49:38.758Z,1007.98
2019-05-12T03:50:36.338Z,1008.01
2019-05-12T03:51:34.932Z,1008.00
2019-05-12T03:52:29.774Z,1008.12
2019-05-12T03:53:26.708Z,1008.03
2019-05-12T03:54:24.541Z,1008.09
2019-05-12T03:55:31.637Z,1008.16
2019-05-12T03:56:17.810Z,1008.21
2019-05-12T03:57:15.222Z,1008.20
2019-05-12T03:58:14.332Z,1008.15
2019-05-12T03:59:08.870Z,1008.12
2019-05-12T04:00:05.856Z,1008.19
2019-05-12T04:01:04.714Z,1008.16
2019-05-12T04:01:59.939Z,1008.23
2019-05-12T04:02:56.885Z,1008.28
2019-05-12T04:03:54.285Z,1008.31
2019-05-12T04:04:50.865Z,1008.30
2019-05-12T04:05:47.894Z,1008.27
2019-05-12T04:06:45.450Z,1008.34
2019-05-12T04:07:44.801Z,1008.32
2019-05-12T04:08:38.905Z,1008.27
2019-05-12T04:09:35.940Z,1008.32
2019-05-12T04:10:35.406Z,1008.41
2019-05-12T04:11:29.930Z,1008.36
2019-05-12T04:12:26.959Z,1008.30
2019-05-12T04:13:26.537Z,1008.32
2019-05-12T04:14:20.962Z,1008.33
2019-05-12T04:15:17.969Z,1008.44
2019-05-12T04:16:16.449Z,1008.37
2019-05-12T04:17:14.772Z,1008.46
2019-05-12T04:18:08.973Z,1008.46
2019-05-12T04:19:06.069Z,1008.38
2019-05-12T04:20:04.814Z,1008.44
2019-05-12T04:21:00.081Z,1008.51
2019-05-12T04:21:57.041Z,1008.48
2019-05-12T04:22:54.854Z,1008.54
2019-05-12T04:23:51.090Z,1008.44
2019-05-12T04:24:48.029Z,1008.47
2019-05-12T04:25:52.287Z,1008.55
2019-05-12T04:26:44.936Z,1008.64
2019-05-12T04:27:39.152Z,1008.56
2019-05-12T04:28:36.071Z,1008.57
2019-05-12T04:29:34.877Z,1008.65
2019-05-12T04:30:30.157Z,1008.63
2019-05-12T04:31:27.200Z,1008.59
2019-05-12T04:32:25.030Z,1008.62
2019-05-12T04:33:21.154Z,1008.71
2019-05-12T04:34:19.266Z,1008.70
2019-05-12T04:35:15.323Z,1008.73
2019-05-12T04:36:14.807Z,1008.74
2019-05-12T04:37:09.218Z,1008.81
2019-05-12T04:38:06.239Z,1008.77
2019-05-12T04:39:04.300Z,1008.72
2019-05-12T04:40:00.227Z,1008.73
2019-05-12T04:40:57.257Z,1008.78
2019-05-12T04:41:55.138Z,1008.94
2019-05-12T04:42:54.589Z,1008.98
2019-05-12T04:43:48.263Z,1008.99
2019-05-12T04:44:45.297Z,1008.96
2019-05-12T04:45:44.809Z,1008.98
2019-05-12T04:46:39.797Z,1009.02
2019-05-12T04:47:36.321Z,1009.02
2019-05-12T04:48:35.971Z,1009.12
2019-05-12T04:49:30.390Z,1009.05
2019-05-12T04:50:27.319Z,1009.01
2019-05-12T04:51:25.898Z,1009.09
2019-05-12T04:52:24.631Z,1009.08
2019-05-12T04:53:18.435Z,1009.07
2019-05-12T04:54:15.637Z,1009.04
2019-05-12T04:55:15.113Z,1008.99
2019-05-12T04:56:16.812Z,1009.05
2019-05-12T04:57:06.395Z,1009.06
2019-05-12T04:58:04.426Z,1009.14
2019-05-12T04:59:00.451Z,1009.14
2019-05-12T04:59:57.406Z,1009.18
2019-05-12T05:00:54.423Z,1009.25
2019-05-12T05:01:53.999Z,1009.23
2019-05-12T05:02:48.519Z,1009.24
2019-05-12T05:03:45.536Z,1009.24
2019-05-12T05:04:44.102Z,1009.28
2019-05-12T05:05:39.523Z,1009.35
2019-05-12T05:06:36.546Z,1009.25
2019-05-12T05:07:35.946Z,1009.31
2019-05-12T05:08:30.532Z,1009.30
2019-05-12T05:09:27.555Z,1009.37
2019-05-12T05:10:25.111Z,1009.21
2019-05-12T05:11:21.665Z,1009.41
2019-05-12T05:12:18.567Z,1009.34
2019-05-12T05:13:15.618Z,1009.39
2019-05-12T05:14:14.286Z,1009.51
2019-05-12T05:15:09.576Z,1009.42
2019-05-12T05:16:06.620Z,1009.51
2019-05-12T05:17:05.536Z,1009.50
2019-05-12T05:18:00.607Z,1009.53
2019-05-12T05:18:57.623Z,1009.59
2019-05-12T05:19:54.660Z,1009.54
2019-05-12T05:20:54.007Z,1009.63
2019-05-12T05:21:48.652Z,1009.59
2019-05-12T05:22:45.671Z,1009.71
2019-05-12T05:23:44.274Z,1009.67
2019-05-12T05:24:39.788Z,1009.71
2019-05-12T05:25:36.682Z,1009.70
2019-05-12T05:26:37.136Z,1009.75
2019-05-12T05:27:30.778Z,1009.79
2019-05-12T05:28:27.704Z,1009.67
2019-05-12T05:29:24.730Z,1009.72
2019-05-12T05:30:24.193Z,1009.78
2019-05-12T05:31:18.817Z,1009.80
2019-05-12T05:32:15.738Z,1009.79
2019-05-12T05:33:14.442Z,1009.84
2019-05-12T05:34:09.904Z,1009.83
2019-05-12T05:35:07.736Z,1009.87
2019-05-12T05:36:03.787Z,1009.88
2019-05-12T05:37:01.631Z,1009.88
2019-05-12T05:37:57.884Z,1009.87
2019-05-12T05:38:59.639Z,1009.94
2019-05-12T05:39:53.912Z,1009.96
2019-05-12T05:40:48.909Z,1009.94
2019-05-12T05:41:50.923Z,1010.07
2019-05-12T05:42:43.967Z,1010.14
2019-05-12T05:43:39.974Z,1010.10
2019-05-12T05:44:38.139Z,1010.14
2019-05-12T05:45:35.155Z,1010.24
2019-05-12T05:46:30.891Z,1010.28
2019-05-12T05:47:28.802Z,1010.27
2019-05-12T05:48:25.062Z,1010.29
2019-05-12T05:49:23.777Z,1010.37
2019-05-12T05:50:25.129Z,1010.31
2019-05-12T05:51:16.023Z,1010.31
2019-05-12T05:52:13.753Z,1010.30
2019-05-12T05:53:17.424Z,1010.30
2019-05-12T05:54:07.002Z,1010.38
2019-05-12T05:55:05.781Z,1010.32
2019-05-12T05:56:01.107Z,1010.30
2019-05-12T05:57:02.614Z,1010.39
2019-05-12T05:57:59.804Z,1010.35
2019-05-12T05:58:54.645Z,1010.40
2019-05-12T05:59:49.120Z,1010.51
2019-05-12T06:00:46.047Z,1010.53
2019-05-12T06:01:47.161Z,1010.55
2019-05-12T06:02:40.656Z,1010.51
2019-05-12T06:03:37.077Z,1010.47
2019-05-12T06:04:34.308Z,1010.48
2019-05-12T06:05:31.176Z,1010.50
2019-05-12T06:06:28.168Z,1010.50
2019-05-12T06:07:34.883Z,1010.57
2019-05-12T06:08:23.790Z,1010.59
2019-05-12T06:09:19.192Z,1010.67
2019-05-12T06:10:16.134Z,1010.70
2019-05-12T06:11:16.898Z,1010.72
2019-05-12T06:12:10.247Z,1010.74
2019-05-12T06:13:07.775Z,1010.78
2019-05-12T06:14:11.398Z,1010.76
2019-05-12T06:15:01.320Z,1010.67
2019-05-12T06:15:58.274Z,1010.77
2019-05-12T06:16:55.272Z,1010.75
2019-05-12T06:17:53.832Z,1010.66
2019-05-12T06:18:49.249Z,1010.76
2019-05-12T06:19:46.297Z,1010.77
2019-05-12T06:20:43.820Z,1010.66
2019-05-12T06:21:40.261Z,1010.63
2019-05-12T06:22:37.353Z,1010.75
2019-05-12T06:23:39.043Z,1010.73
2019-05-12T06:24:33.343Z,1010.62
2019-05-12T06:25:41.165Z,1010.68
2019-05-12T06:26:30.823Z,1010.69
2019-05-12T06:27:24.330Z,1010.68
2019-05-12T06:28:19.327Z,1010.82
2019-05-12T06:29:20.705Z,1010.85
2019-05-12T06:30:14.821Z,1010.74
2019-05-12T06:31:10.425Z,1010.80
2019-05-12T06:32:10.786Z,1010.67
2019-05-12T06:33:04.410Z,1010.76
2019-05-12T06:34:06.294Z,1010.73
2019-05-12T06:35:01.520Z,1010.80
2019-05-12T06:35:55.391Z,1010.85
2019-05-12T06:36:56.891Z,1010.94
2019-05-12T06:37:57.759Z,1010.85
2019-05-12T06:38:46.523Z,1010.91
2019-05-12T06:39:43.664Z,1010.87
2019-05-12T06:40:42.412Z,1010.88
2019-05-12T06:41:37.540Z,1010.92
2019-05-12T06:42:34.463Z,1010.93
2019-05-12T06:43:35.222Z,1010.87
2019-05-12T06:44:28.561Z,1010.78
2019-05-12T06:45:28.413Z,1010.84
2019-05-12T06:46:23.643Z,1010.97
2019-05-12T06:47:19.550Z,1010.87
2019-05-12T06:48:19.275Z,1011.03
2019-05-12T06:49:17.343Z,1011.03
2019-05-12T06:50:10.581Z,1011.09
2019-05-12T06:51:09.101Z,1011.06
2019-05-12T06:52:07.045Z,1011.04
2019-05-12T06:53:01.573Z,1011.07
2019-05-12T06:54:00.916Z,1011.11
2019-05-12T06:54:56.804Z,1011.06
2019-05-12T06:55:54.005Z,1010.89
2019-05-12T06:56:50.073Z,1010.77
2019-05-12T06:57:50.126Z,1011.01
2019-05-12T06:58:44.302Z,1011.01
2019-05-12T06:59:42.015Z,1011.21
2019-05-12T07:00:37.756Z,1011.26
2019-05-12T07:01:34.742Z,1011.06
2019-05-12T07:02:38.629Z,1010.96
2019-05-12T07:03:30.794Z,1011.09
2019-05-12T07:04:25.807Z,1011.14
2019-05-12T07:05:23.343Z,1011.12
2019-05-12T07:06:20.081Z,1011.14
2019-05-12T07:07:16.727Z,1011.30
2019-05-12T07:08:20.003Z,1011.25
2019-05-12T07:09:16.365Z,1011.21
2019-05-12T07:10:11.618Z,1011.22
2019-05-12T07:11:06.095Z,1011.27
2019-05-12T07:12:03.780Z,1011.13
2019-05-12T07:13:02.624Z,1011.26
2019-05-12T07:14:04.129Z,1011.34
2019-05-12T07:14:55.404Z,1011.46
2019-05-12T07:15:49.948Z,1011.51
2019-05-12T07:16:46.936Z,1011.59
2019-05-12T07:17:49.164Z,1011.58
2019-05-12T07:18:43.618Z,1011.54
2019-05-12T07:19:37.969Z,1011.52
2019-05-12T07:20:38.833Z,1011.44
2019-05-12T07:21:33.532Z,1011.56
2019-05-12T07:22:31.803Z,1011.40
2019-05-12T07:23:30.058Z,1011.35
2019-05-12T07:24:23.882Z,1011.40
2019-05-12T07:25:24.604Z,1011.35
2019-05-12T07:26:19.357Z,1011.46
2019-05-12T07:27:14.190Z,1011.44
2019-05-12T07:28:10.942Z,1011.48
2019-05-12T07:29:08.012Z,1011.47
2019-05-12T07:30:05.024Z,1011.47
2019-05-12T07:31:03.894Z,1011.61
2019-05-12T07:31:58.979Z,1011.64
2019-05-12T07:32:59.756Z,1011.63
2019-05-12T07:33:54.209Z,1011.62
2019-05-12T07:34:50.083Z,1011.76
2019-05-12T07:35:47.072Z,1011.61
2019-05-12T07:36:44.364Z,1011.68
2019-05-12T07:37:43.520Z,1011.79
2019-05-12T07:38:38.047Z,1011.80
2019-05-12T07:39:37.017Z,1011.66
2019-05-12T07:40:34.709Z,1011.81
2019-05-12T07:41:29.243Z,1011.84
2019-05-12T07:42:31.529Z,1011.78
2019-05-12T07:43:24.264Z,1011.79
2019-05-12T07:44:22.211Z,1011.76
2019-05-12T07:45:22.161Z,1011.73
2019-05-12T07:46:14.156Z,1011.64
2019-05-12T07:47:11.173Z,1011.80
2019-05-12T07:48:10.163Z,1011.92
2019-05-12T07:49:05.149Z,1011.91
2019-05-12T07:50:04.294Z,1011.91
2019-05-12T07:51:00.679Z,1011.70
2019-05-12T07:51:56.358Z,1011.58
2019-05-12T07:52:54.292Z,1011.88
2019-05-12T07:53:57.160Z,1011.93
2019-05-12T07:54:47.327Z,1011.87
2019-05-12T07:55:47.566Z,1012.01
2019-05-12T07:56:44.085Z,1011.92
2019-05-12T07:57:51.986Z,1011.16
2019-05-12T07:58:35.379Z,1011.58
2019-05-12T07:59:39.006Z,1011.58
2019-05-12T08:00:29.328Z,1012.15
2019-05-12T08:01:26.427Z,1012.40
2019-05-12T08:02:31.785Z,1012.30
2019-05-12T08:03:21.374Z,1012.28
2019-05-12T08:04:17.381Z,1012.25
2019-05-12T08:05:19.571Z,1012.36
2019-05-12T08:06:13.858Z,1012.45
2019-05-12T08:07:08.363Z,1012.38
2019-05-12T08:08:10.492Z,1012.32
2019-05-12T08:09:04.132Z,1012.27
2019-05-12T08:09:59.445Z,1012.16
2019-05-12T08:10:56.450Z,1012.05
2019-05-12T08:11:54.075Z,1012.08
2019-05-12T08:12:51.073Z,1011.90
2019-05-12T08:13:47.438Z,1011.99
2019-05-12T08:14:44.460Z,1011.74
2019-05-12T08:15:45.786Z,1011.22
2019-05-12T08:16:38.558Z,1012.09
2019-05-12T08:17:35.554Z,1011.37
2019-05-12T08:18:36.764Z,1010.72
2019-05-12T08:19:29.535Z,1010.92
2019-05-12T08:20:26.591Z,1011.28
2019-05-12T08:21:24.272Z,1011.14
2019-05-12T08:22:25.034Z,1011.39
2019-05-12T08:23:17.622Z,1011.11
2019-05-12T08:24:14.814Z,1011.44
2019-05-12T08:25:13.470Z,1011.41
2019-05-12T08:26:12.418Z,1011.69
2019-05-12T08:27:06.617Z,1011.51
2019-05-12T08:28:12.413Z,1012.08
2019-05-12T08:28:59.637Z,1011.85
2019-05-12T08:30:00.954Z,1012.12
2019-05-12T08:30:54.835Z,1011.93
2019-05-12T08:31:50.624Z,1012.08
2019-05-12T08:32:47.689Z,1012.15
2019-05-12T08:33:44.720Z,1012.08
2019-05-12T08:34:43.726Z,1012.05
2019-05-12T08:35:38.991Z,1012.49
2019-05-12T08:36:35.738Z,1011.47
2019-05-12T08:37:33.321Z,1011.17
2019-05-12T08:38:29.769Z,1012.48
2019-05-12T08:39:26.698Z,1013.12
2019-05-12T08:40:24.805Z,1012.99
2019-05-12T08:41:20.819Z,1012.77
2019-05-12T08:42:17.957Z,1011.48
2019-05-12T08:43:15.073Z,1010.86
2019-05-12T08:44:13.556Z,1010.76
2019-05-12T08:45:15.286Z,1010.72
2019-05-12T08:46:11.906Z,1011.94
2019-05-12T08:47:03.903Z,1014.70
2019-05-12T08:47:59.936Z,1015.39
2019-05-12T08:49:00.694Z,1015.27
2019-05-12T08:49:58.341Z,1014.44
2019-05-12T08:50:50.885Z,1014.08
2019-05-12T08:51:49.456Z,1013.49
2019-05-12T08:52:45.064Z,1013.48
2019-05-12T08:53:43.995Z,1013.42
2019-05-12T08:54:39.636Z,1012.92
2019-05-12T08:55:36.138Z,1012.82
2019-05-12T08:56:33.339Z,1012.47
2019-05-12T08:57:34.851Z,1012.36
2019-05-12T08:58:33.553Z,1012.64
2019-05-12T08:59:27.209Z,1012.47
2019-05-12T09:00:20.952Z,1012.50
2019-05-12T09:01:20.381Z,1012.48
2019-05-12T09:02:15.141Z,1012.50
2019-05-12T09:03:14.054Z,1012.59
2019-05-12T09:04:13.317Z,1012.63
2019-05-12T09:05:06.101Z,1012.67
2019-05-12T09:06:04.041Z,1011.84
2019-05-12T09:07:00.060Z,1012.12
2019-05-12T09:07:57.046Z,1012.35
2019-05-12T09:08:54.313Z,1012.46
2019-05-12T09:09:53.253Z,1012.57
2019-05-12T09:10:47.991Z,1012.47
2019-05-12T09:11:45.092Z,1012.53
2019-05-12T09:12:44.101Z,1012.18
2019-05-12T09:13:39.113Z,1012.70
2019-05-12T09:14:41.293Z,1011.05
2019-05-12T09:15:34.644Z,1009.32
2019-05-12T09:16:30.066Z,1011.04
2019-05-12T09:17:27.165Z,1013.54
2019-05-12T09:18:33.925Z,1014.30
2019-05-12T09:19:24.969Z,1014.14
2019-05-12T09:20:18.226Z,1013.68
2019-05-12T09:21:15.171Z,1013.08
2019-05-12T09:22:16.696Z,1012.66
2019-05-12T09:23:09.286Z,1012.10
2019-05-12T09:24:06.255Z,1012.86
2019-05-12T09:25:06.774Z,1013.39
2019-05-12T09:26:00.246Z,1013.57
2019-05-12T09:26:58.899Z,1013.17
2019-05-12T09:27:54.350Z,1012.67
2019-05-12T09:28:51.312Z,1012.78
2019-05-12T09:29:48.294Z,1010.90
2019-05-12T09:30:49.330Z,1008.69
2019-05-12T09:31:44.029Z,1009.29
2019-05-12T09:32:44.424Z,1010.10
2019-05-12T09:33:36.320Z,1010.02
2019-05-12T09:34:33.681Z,1011.62
2019-05-12T09:35:35.020Z,1011.86
2019-05-12T09:36:27.351Z,1012.17
2019-05-12T09:37:24.437Z,1012.00
2019-05-12T09:38:23.135Z,1012.90
2019-05-12T09:39:18.293Z,1012.73
2019-05-12T09:40:20.734Z,1011.81
2019-05-12T09:41:13.977Z,1011.41
2019-05-12T09:42:09.385Z,1012.75
2019-05-12T09:43:10.462Z,1013.75
2019-05-12T09:44:04.555Z,1013.72
2019-05-12T09:45:06.109Z,1013.16
2019-05-12T09:45:57.375Z,1012.80
2019-05-12T09:46:54.428Z,1012.84
2019-05-12T09:47:51.448Z,1013.28
2019-05-12T09:48:52.318Z,1014.02
2019-05-12T09:49:45.428Z,1014.58
2019-05-12T09:50:45.914Z,1014.70
2019-05-12T09:51:45.725Z,1012.15
2019-05-12T09:52:36.533Z,1012.01
2019-05-12T09:53:34.135Z,1011.88
2019-05-12T09:54:35.269Z,1012.74
2019-05-12T09:55:27.752Z,1012.67
2019-05-12T09:56:24.563Z,1012.42
2019-05-12T09:57:23.797Z,1013.17
2019-05-12T09:58:23.069Z,1012.88
2019-05-12T09:59:22.815Z,1012.33
2019-05-12T10:00:13.733Z,1012.98
2019-05-12T10:01:09.589Z,1014.26
2019-05-12T10:02:13.959Z,1013.30
2019-05-12T10:03:04.857Z,1013.83
2019-05-12T10:04:00.561Z,1015.03
2019-05-12T10:05:00.777Z,1014.70
2019-05-12T10:05:54.580Z,1014.24
2019-05-12T10:06:53.467Z,1013.22
2019-05-12T10:07:48.602Z,1012.69
2019-05-12T10:08:45.609Z,1013.25
2019-05-12T10:09:44.023Z,1013.57
2019-05-12T10:10:40.787Z,1013.46
2019-05-12T10:11:36.642Z,1013.39
2019-05-12T10:12:36.576Z,1012.87
2019-05-12T10:13:30.658Z,1012.60
2019-05-12T10:14:27.684Z,1011.32
2019-05-12T10:15:28.667Z,1011.91
2019-05-12T10:16:23.904Z,1012.27
2019-05-12T10:17:20.319Z,1011.78
2019-05-12T10:18:15.821Z,1011.84
2019-05-12T10:19:14.474Z,1011.71
2019-05-12T10:20:09.738Z,1013.15
2019-05-12T10:21:10.169Z,1012.92
2019-05-12T10:22:03.760Z,1013.40
2019-05-12T10:23:00.760Z,1013.91
2019-05-12T10:24:01.782Z,1014.04
2019-05-12T10:24:58.476Z,1013.62
2019-05-12T10:25:53.752Z,1012.62
2019-05-12T10:26:50.594Z,1012.12
2019-05-12T10:27:45.952Z,1011.94
2019-05-12T10:28:51.026Z,1012.14
2019-05-12T10:29:40.389Z,1012.52
2019-05-12T10:30:36.954Z,1012.66
2019-05-12T10:31:35.635Z,1013.03
2019-05-12T10:32:30.928Z,1012.50
2019-05-12T10:33:28.014Z,1012.44
2019-05-12T10:34:29.299Z,1012.41
2019-05-12T10:35:24.529Z,1012.52
2019-05-12T10:36:18.927Z,1012.65
2019-05-12T10:37:19.233Z,1012.79
2019-05-12T10:38:13.683Z,1013.41
2019-05-12T10:39:09.936Z,1013.29
2019-05-12T10:40:07.003Z,1013.45
2019-05-12T10:41:04.403Z,1012.94
2019-05-12T10:42:01.096Z,1012.80
2019-05-12T10:42:58.031Z,1012.92
2019-05-12T10:43:57.777Z,1013.18
2019-05-12T10:44:54.483Z,1013.24
2019-05-12T10:45:49.145Z,1012.87
2019-05-12T10:46:46.131Z,1012.89
2019-05-12T10:47:43.115Z,1013.08
2019-05-12T10:48:40.253Z,1013.21
2019-05-12T10:49:37.136Z,1012.93
2019-05-12T10:50:34.411Z,1012.91
2019-05-12T10:51:31.124Z,1012.95
2019-05-12T10:52:29.521Z,1013.54
2019-05-12T10:53:25.187Z,1012.92
2019-05-12T10:54:24.197Z,1012.41
2019-05-12T10:55:19.179Z,1012.57
2019-05-12T10:56:16.246Z,1012.46
2019-05-12T10:57:14.148Z,1012.47
2019-05-12T10:58:10.147Z,1012.30
2019-05-12T10:59:07.217Z,1012.12
2019-05-12T11:00:04.454Z,1012.31
2019-05-12T11:01:05.236Z,1012.60
2019-05-12T11:01:58.238Z,1012.71
2019-05-12T11:02:55.307Z,1012.87
2019-05-12T11:03:52.311Z,1013.33
2019-05-12T11:04:49.278Z,1013.26
2019-05-12T11:05:46.372Z,1012.93
2019-05-12T11:06:46.841Z,1012.72
2019-05-12T11:07:40.248Z,1012.46
2019-05-12T11:08:41.353Z,1013.17
2019-05-12T11:09:34.636Z,1013.33
2019-05-12T11:10:31.448Z,1013.43
2019-05-12T11:11:32.847Z,1012.96
2019-05-12T11:12:29.100Z,1012.86
2019-05-12T11:13:23.377Z,1013.20
2019-05-12T11:14:20.300Z,1012.51
2019-05-12T11:15:16.436Z,1013.04
2019-05-12T11:16:14.744Z,1013.28
2019-05-12T11:17:10.507Z,1013.40
2019-05-12T11:18:07.463Z,1013.23
2019-05-12T11:19:08.748Z,1012.52
2019-05-12T11:20:03.978Z,1012.69
2019-05-12T11:20:58.554Z,1012.52
2019-05-12T11:21:55.437Z,1012.33
2019-05-12T11:22:54.281Z,1012.29
2019-05-12T11:23:49.477Z,1012.48
2019-05-12T11:24:46.599Z,1012.54
2019-05-12T11:25:44.023Z,1012.74
2019-05-12T11:26:40.526Z,1012.67
2019-05-12T11:27:37.565Z,1012.59
2019-05-12T11:28:34.567Z,1012.78
2019-05-12T11:29:43.313Z,1013.07